createdAt,value
2023-05-14T00:00:23.061Z,10.60
2023-05-14T00:02:26.085Z,10.48
2023-05-14T00:04:30.295Z,10.84
2023-05-14T00:06:33.120Z,11.02
2023-05-14T00:08:36.243Z,11.01
2023-05-14T00:10:39.063Z,9.74
2023-05-14T00:12:41.914Z,10.92
2023-05-14T00:14:44.645Z,10.39
2023-05-14T00:16:47.418Z,10.56
2023-05-14T00:18:50.294Z,11.12
2023-05-14T00:20:55.069Z,11.11
2023-05-14T00:22:57.792Z,11.00
2023-05-14T00:25:00.561Z,10.95
2023-05-14T00:27:03.516Z,10.84
2023-05-14T00:29:06.303Z,10.80
2023-05-14T00:31:09.136Z,11.18
2023-05-14T00:33:11.913Z,11.10
2023-05-14T00:35:14.639Z,11.08
2023-05-14T00:37:18.762Z,11.20
2023-05-14T00:39:21.851Z,11.22
2023-05-14T00:41:24.601Z,11.40
2023-05-14T00:43:27.376Z,11.48
2023-05-14T00:45:30.191Z,11.46
2023-05-14T00:47:34.772Z,11.45
2023-05-14T00:49:39.899Z,11.23
2023-05-14T00:51:46.724Z,11.07
2023-05-14T00:53:52.668Z,10.87
2023-05-14T00:55:55.670Z,10.73
2023-05-14T00:58:00.401Z,10.07
2023-05-14T01:00:03.762Z,10.90
2023-05-14T01:02:07.674Z,10.94
2023-05-14T01:04:12.541Z,10.91
2023-05-14T01:06:19.555Z,10.94
2023-05-14T01:08:31.667Z,10.85
2023-05-14T01:10:43.374Z,10.81
2023-05-14T01:12:52.871Z,10.87
2023-05-14T01:15:03.046Z,11.07
2023-05-14T01:17:07.169Z,11.04
2023-05-14T01:19:22.749Z,10.90
2023-05-14T01:21:35.847Z,10.91
2023-05-14T01:23:38.563Z,10.92
2023-05-14T01:25:41.600Z,11.02
2023-05-14T01:27:53.886Z,11.08
2023-05-14T01:30:04.271Z,11.20
2023-05-14T01:32:09.727Z,11.28
2023-05-14T01:34:14.958Z,11.36
2023-05-14T01:36:17.915Z,11.39
2023-05-14T01:38:22.784Z,11.48
2023-05-14T01:40:26.360Z,11.39
2023-05-14T01:42:30.130Z,11.34
2023-05-14T01:44:33.919Z,11.38
2023-05-14T01:46:36.922Z,11.00
2023-05-14T01:48:41.398Z,11.34
2023-05-14T01:50:44.737Z,11.42
2023-05-14T01:52:48.324Z,11.53
2023-05-14T01:54:52.593Z,11.56
2023-05-14T01:56:55.596Z,11.44
2023-05-14T01:58:58.368Z,11.51
2023-05-14T02:01:01.435Z,11.54
2023-05-14T02:03:04.344Z,11.50
2023-05-14T02:05:08.093Z,11.28
2023-05-14T02:07:10.796Z,10.98
2023-05-14T02:09:13.587Z,11.06
2023-05-14T02:11:18.027Z,11.20
2023-05-14T02:13:20.836Z,10.48
2023-05-14T02:15:23.842Z,10.78
2023-05-14T02:17:28.085Z,10.85
2023-05-14T02:19:31.008Z,10.56
2023-05-14T02:21:33.755Z,10.69
2023-05-14T02:23:41.441Z,10.77
2023-05-14T02:25:45.443Z,10.77
2023-05-14T02:27:49.565Z,10.78
2023-05-14T02:29:52.374Z,10.84
2023-05-14T02:31:55.227Z,11.03
2023-05-14T02:33:58.006Z,11.18
2023-05-14T02:36:00.734Z,11.25
2023-05-14T02:38:04.090Z,11.30
2023-05-14T02:40:08.218Z,11.04
2023-05-14T02:42:10.946Z,10.70
2023-05-14T02:44:14.983Z,10.78
2023-05-14T02:46:17.784Z,10.93
2023-05-14T02:48:20.589Z,11.14
2023-05-14T02:50:23.566Z,11.27
2023-05-14T02:52:26.526Z,11.32
2023-05-14T02:54:29.317Z,11.27
2023-05-14T02:56:32.185Z,11.36
2023-05-14T02:58:35.072Z,11.30
2023-05-14T03:00:39.304Z,11.31
2023-05-14T03:02:43.571Z,11.41
2023-05-14T03:04:46.846Z,11.33
2023-05-14T03:06:49.715Z,11.50
2023-05-14T03:08:52.504Z,11.18
2023-05-14T03:10:55.257Z,11.11
2023-05-14T03:12:57.967Z,11.06
2023-05-14T03:15:00.680Z,10.90
2023-05-14T03:17:05.224Z,10.67
2023-05-14T03:19:08.092Z,10.79
2023-05-14T03:21:11.063Z,10.90
2023-05-14T03:23:14.856Z,10.90
2023-05-14T03:25:17.580Z,10.97
2023-05-14T03:27:20.768Z,11.05
2023-05-14T03:29:23.511Z,10.71
2023-05-14T03:31:26.826Z,10.92
2023-05-14T03:33:33.822Z,11.11
2023-05-14T03:35:36.557Z,11.18
2023-05-14T03:37:39.305Z,11.26
2023-05-14T03:39:42.015Z,11.18
2023-05-14T03:41:44.705Z,11.00
2023-05-14T03:43:47.429Z,11.21
2023-05-14T03:45:52.404Z,11.14
2023-05-14T03:47:55.597Z,11.00
2023-05-14T03:49:59.787Z,11.02
2023-05-14T03:52:02.535Z,10.73
2023-05-14T03:54:06.181Z,10.52
2023-05-14T03:56:09.005Z,10.67
2023-05-14T03:58:14.210Z,10.72
2023-05-14T04:00:17.524Z,10.83
2023-05-14T04:02:20.249Z,10.84
2023-05-14T04:04:23.292Z,10.74
2023-05-14T04:06:27.498Z,10.76
2023-05-14T04:08:31.030Z,10.89
2023-05-14T04:10:33.772Z,10.98
2023-05-14T04:12:36.741Z,10.89
2023-05-14T04:14:39.852Z,10.89
2023-05-14T04:16:42.695Z,10.91
2023-05-14T04:18:46.005Z,10.98
2023-05-14T04:20:48.815Z,11.06
2023-05-14T04:22:53.075Z,10.80
2023-05-14T04:24:55.781Z,11.03
2023-05-14T04:26:58.474Z,11.01
2023-05-14T04:29:03.118Z,10.83
2023-05-14T04:31:06.064Z,10.56
2023-05-14T04:33:08.841Z,10.49
2023-05-14T04:35:12.868Z,10.43
2023-05-14T04:37:15.824Z,10.51
2023-05-14T04:39:19.922Z,10.38
2023-05-14T04:41:22.617Z,10.41
2023-05-14T04:43:25.517Z,10.56
2023-05-14T04:45:28.177Z,10.60
2023-05-14T04:47:30.896Z,10.41
2023-05-14T04:49:33.653Z,10.61
2023-05-14T04:51:36.326Z,10.57
2023-05-14T04:53:39.019Z,10.50
2023-05-14T04:55:43.054Z,10.53
2023-05-14T04:57:45.767Z,10.05
2023-05-14T04:59:48.500Z,10.37
2023-05-14T05:01:51.640Z,10.28
2023-05-14T05:03:55.062Z,10.12
2023-05-14T05:05:57.880Z,9.68
2023-05-14T05:08:00.576Z,10.15
2023-05-14T05:10:03.479Z,9.56
2023-05-14T05:12:08.454Z,10.24
2023-05-14T05:14:11.136Z,10.40
2023-05-14T05:16:13.971Z,10.32
2023-05-14T05:18:16.682Z,10.23
2023-05-14T05:20:19.444Z,10.14
2023-05-14T05:22:22.218Z,10.04
2023-05-14T05:24:25.214Z,10.02
2023-05-14T05:26:28.120Z,10.28
2023-05-14T05:28:32.158Z,10.06
2023-05-14T05:30:34.942Z,10.15
2023-05-14T05:32:37.806Z,10.06
2023-05-14T05:34:40.543Z,10.21
2023-05-14T05:36:43.267Z,10.10
2023-05-14T05:38:45.949Z,10.11
2023-05-14T05:40:48.914Z,10.25
2023-05-14T05:42:51.616Z,10.43
2023-05-14T05:44:56.233Z,10.27
2023-05-14T05:46:58.985Z,10.54
2023-05-14T05:49:01.756Z,10.90
2023-05-14T05:51:04.920Z,11.18
2023-05-14T05:53:07.605Z,11.38
2023-05-14T05:55:10.903Z,11.08
2023-05-14T05:57:13.661Z,11.40
2023-05-14T05:59:16.314Z,11.24
2023-05-14T06:01:20.580Z,11.31
2023-05-14T06:03:23.293Z,10.69
2023-05-14T06:05:26.110Z,10.90
2023-05-14T06:07:28.782Z,11.06
2023-05-14T06:09:31.452Z,11.32
2023-05-14T06:11:34.152Z,10.97
2023-05-14T06:13:36.830Z,10.86
2023-05-14T06:15:39.463Z,11.21
2023-05-14T06:17:43.555Z,11.40
2023-05-14T06:19:46.276Z,11.53
2023-05-14T06:21:48.976Z,11.58
2023-05-14T06:23:51.884Z,11.76
2023-05-14T06:25:54.616Z,11.74
2023-05-14T06:27:57.293Z,11.77
2023-05-14T06:29:59.913Z,11.78
2023-05-14T06:32:03.632Z,11.78
2023-05-14T06:34:08.034Z,11.65
2023-05-14T06:36:11.098Z,11.90
2023-05-14T06:38:13.765Z,12.03
2023-05-14T06:40:16.595Z,11.96
2023-05-14T06:42:19.317Z,12.10
2023-05-14T06:44:23.495Z,12.20
2023-05-14T06:46:26.162Z,12.35
2023-05-14T06:48:29.547Z,12.19
2023-05-14T06:50:33.636Z,12.45
2023-05-14T06:52:36.309Z,12.32
2023-05-14T06:54:39.332Z,12.38
2023-05-14T06:56:42.016Z,12.59
2023-05-14T06:58:44.698Z,12.69
2023-05-14T07:00:47.322Z,12.50
2023-05-14T07:02:50.051Z,12.44
2023-05-14T07:04:52.718Z,12.06
2023-05-14T07:06:56.686Z,12.35
2023-05-14T07:08:59.884Z,12.56
2023-05-14T07:11:02.651Z,12.63
2023-05-14T07:13:05.541Z,12.40
2023-05-14T07:15:09.548Z,12.89
2023-05-14T07:17:12.701Z,12.16
2023-05-14T07:19:15.449Z,13.14
2023-05-14T07:21:18.282Z,13.38
2023-05-14T07:23:22.313Z,12.82
2023-05-14T07:25:24.973Z,12.91
2023-05-14T07:27:27.692Z,13.10
2023-05-14T07:29:30.807Z,13.10
2023-05-14T07:31:33.472Z,13.15
2023-05-14T07:33:36.748Z,13.16
2023-05-14T07:35:39.517Z,13.28
2023-05-14T07:37:42.866Z,13.34
2023-05-14T07:39:46.842Z,13.38
2023-05-14T07:41:50.152Z,12.79
2023-05-14T07:43:52.776Z,13.15
2023-05-14T07:45:55.835Z,13.34
2023-05-14T07:47:58.662Z,13.55
2023-05-14T07:50:01.434Z,13.71
2023-05-14T07:52:04.242Z,13.62
2023-05-14T07:54:06.931Z,13.52
2023-05-14T07:56:11.021Z,12.64
2023-05-14T07:58:13.666Z,12.91
2023-05-14T08:00:17.048Z,13.14
2023-05-14T08:02:19.834Z,12.97
2023-05-14T08:04:23.411Z,13.13
2023-05-14T08:06:27.508Z,12.91
2023-05-14T08:08:30.258Z,13.11
2023-05-14T08:10:33.053Z,12.93
2023-05-14T08:12:37.209Z,12.63
2023-05-14T08:14:39.988Z,12.65
2023-05-14T08:16:42.753Z,13.11
2023-05-14T08:18:45.610Z,13.12
2023-05-14T08:20:48.392Z,12.46
2023-05-14T08:22:51.132Z,12.90
2023-05-14T08:24:53.934Z,13.15
2023-05-14T08:26:56.866Z,13.17
2023-05-14T08:29:00.992Z,13.59
2023-05-14T08:31:03.724Z,13.37
2023-05-14T08:33:06.446Z,13.66
2023-05-14T08:35:09.988Z,13.62
2023-05-14T08:37:12.739Z,13.93
2023-05-14T08:39:15.579Z,13.92
2023-05-14T08:41:18.735Z,13.91
2023-05-14T08:43:27.340Z,13.97
2023-05-14T08:45:34.164Z,13.86
2023-05-14T08:47:37.667Z,13.78
2023-05-14T08:49:43.097Z,13.87
2023-05-14T08:51:47.138Z,13.89
2023-05-14T08:53:49.892Z,14.41
2023-05-14T08:55:54.598Z,14.09
2023-05-14T08:57:57.368Z,14.14
2023-05-14T09:00:00.352Z,13.70
2023-05-14T09:02:06.502Z,14.80
2023-05-14T09:04:10.410Z,14.79
2023-05-14T09:06:15.013Z,14.56
2023-05-14T09:08:17.764Z,14.37
2023-05-14T09:10:21.073Z,14.85
2023-05-14T09:12:24.213Z,14.68
2023-05-14T09:14:26.931Z,14.70
2023-05-14T09:16:29.793Z,14.78
2023-05-14T09:18:34.019Z,15.09
2023-05-14T09:20:36.887Z,14.58
2023-05-14T09:22:40.114Z,15.45
2023-05-14T09:24:43.327Z,15.86
2023-05-14T09:26:46.062Z,15.34
2023-05-14T09:28:48.802Z,15.85
2023-05-14T09:30:52.577Z,15.84
2023-05-14T09:32:55.969Z,15.57
2023-05-14T09:35:00.111Z,16.12
2023-05-14T09:37:05.114Z,15.33
2023-05-14T09:39:07.874Z,15.17
2023-05-14T09:41:10.777Z,15.21
2023-05-14T09:43:14.010Z,15.80
2023-05-14T09:45:17.212Z,16.43
2023-05-14T09:47:20.049Z,16.89
2023-05-14T09:49:23.601Z,16.72
2023-05-14T09:51:31.477Z,16.77
2023-05-14T09:53:35.594Z,16.91
2023-05-14T09:55:38.987Z,17.18
2023-05-14T09:57:41.724Z,17.12
2023-05-14T09:59:44.514Z,17.56
2023-05-14T10:01:47.631Z,17.71
2023-05-14T10:03:51.124Z,17.54
2023-05-14T10:05:53.958Z,17.50
2023-05-14T10:08:00.274Z,16.51
2023-05-14T10:10:08.126Z,17.06
2023-05-14T10:12:11.085Z,16.92
2023-05-14T10:14:19.026Z,16.97
2023-05-14T10:16:29.220Z,17.58
2023-05-14T10:18:36.873Z,16.88
2023-05-14T10:20:41.635Z,17.32
2023-05-14T10:22:44.403Z,17.76
2023-05-14T10:24:52.533Z,17.29
2023-05-14T10:26:55.466Z,17.45
2023-05-14T10:28:59.113Z,17.64
2023-05-14T10:31:01.948Z,18.65
2023-05-14T10:33:09.177Z,18.99
2023-05-14T10:35:22.883Z,19.30
2023-05-14T10:37:27.486Z,19.36
2023-05-14T10:39:48.616Z,18.70
2023-05-14T10:41:51.348Z,18.26
2023-05-14T10:43:54.140Z,18.62
2023-05-14T10:45:57.343Z,18.76
2023-05-14T10:48:00.211Z,18.14
2023-05-14T10:50:06.097Z,18.19
2023-05-14T10:52:09.781Z,18.69
2023-05-14T10:54:13.412Z,18.23
2023-05-14T10:56:17.955Z,18.51
2023-05-14T10:58:20.815Z,18.90
2023-05-14T11:00:27.704Z,18.21
2023-05-14T11:02:32.259Z,18.96
2023-05-14T11:04:35.013Z,18.47
2023-05-14T11:06:41.547Z,17.86
2023-05-14T11:08:46.314Z,16.96
2023-05-14T11:10:50.092Z,16.48
2023-05-14T11:12:54.194Z,16.15
2023-05-14T11:14:59.105Z,16.01
2023-05-14T11:17:02.064Z,15.97
2023-05-14T11:19:05.996Z,15.53
2023-05-14T11:21:08.893Z,15.18
2023-05-14T11:23:11.658Z,15.51
2023-05-14T11:25:15.853Z,15.29
2023-05-14T11:27:19.459Z,15.17
2023-05-14T11:29:23.582Z,15.59
2023-05-14T11:31:26.732Z,15.85
2023-05-14T11:33:29.685Z,14.82
2023-05-14T11:35:33.628Z,14.91
2023-05-14T11:37:36.701Z,14.92
2023-05-14T11:39:40.329Z,14.06
2023-05-14T11:41:45.616Z,13.70
2023-05-14T11:43:48.951Z,14.41
2023-05-14T11:45:54.423Z,14.80
2023-05-14T11:47:57.219Z,14.59
2023-05-14T11:50:00.834Z,14.43
2023-05-14T11:52:04.767Z,15.11
2023-05-14T11:54:07.448Z,14.97
2023-05-14T11:56:11.113Z,15.25
2023-05-14T11:58:14.278Z,15.78
2023-05-14T12:00:21.664Z,15.82
2023-05-14T12:02:29.861Z,15.35
2023-05-14T12:04:33.171Z,15.34
2023-05-14T12:06:35.908Z,15.57
2023-05-14T12:08:38.642Z,16.03
2023-05-14T12:10:43.104Z,16.91
2023-05-14T12:12:47.922Z,17.58
2023-05-14T12:14:54.392Z,17.55
2023-05-14T12:16:57.152Z,17.41
2023-05-14T12:19:02.561Z,18.70
2023-05-14T12:21:08.286Z,19.30
2023-05-14T12:23:11.950Z,20.04
2023-05-14T12:25:14.910Z,20.45
2023-05-14T12:27:17.664Z,20.36
2023-05-14T12:29:22.001Z,19.10
2023-05-14T12:31:29.766Z,19.65
2023-05-14T12:33:32.529Z,18.93
2023-05-14T12:35:37.110Z,19.99
2023-05-14T12:37:40.248Z,20.91
2023-05-14T12:39:42.996Z,22.31
2023-05-14T12:41:45.751Z,22.81
2023-05-14T12:43:52.134Z,22.07
2023-05-14T12:45:55.372Z,21.42
2023-05-14T12:47:58.117Z,20.80
2023-05-14T12:50:00.907Z,20.07
2023-05-14T12:52:25.736Z,19.68
2023-05-14T12:54:28.259Z,18.83
2023-05-14T12:56:32.060Z,18.45
2023-05-14T12:58:34.819Z,18.61
2023-05-14T13:00:37.711Z,18.26
2023-05-14T13:02:42.057Z,18.03
2023-05-14T13:04:46.427Z,18.09
2023-05-14T13:06:49.290Z,17.95
2023-05-14T13:08:53.377Z,17.73
2023-05-14T13:10:56.962Z,17.50
2023-05-14T13:12:59.695Z,17.06
2023-05-14T13:15:02.603Z,17.07
2023-05-14T13:17:07.052Z,16.95
2023-05-14T13:19:10.029Z,16.53
2023-05-14T13:21:12.961Z,15.91
2023-05-14T13:23:15.893Z,15.50
2023-05-14T13:25:20.632Z,15.72
2023-05-14T13:27:23.352Z,15.63
2023-05-14T13:29:26.169Z,15.57
2023-05-14T13:31:29.033Z,16.03
2023-05-14T13:33:31.878Z,16.24
2023-05-14T13:35:35.075Z,15.83
2023-05-14T13:37:38.043Z,15.61
2023-05-14T13:39:41.211Z,15.56
2023-05-14T13:41:45.586Z,15.66
2023-05-14T13:43:48.336Z,15.98
2023-05-14T13:45:51.137Z,15.12
2023-05-14T13:47:53.943Z,15.93
2023-05-14T13:49:57.536Z,15.88
2023-05-14T13:52:00.379Z,15.48
2023-05-14T13:54:03.391Z,15.20
2023-05-14T13:56:08.523Z,14.68
2023-05-14T13:58:12.653Z,13.72
2023-05-14T14:00:16.244Z,14.20
2023-05-14T14:02:19.188Z,14.22
2023-05-14T14:04:22.198Z,14.28
2023-05-14T14:06:27.222Z,14.31
2023-05-14T14:08:31.105Z,14.16
2023-05-14T14:10:33.915Z,13.90
2023-05-14T14:12:36.774Z,13.16
2023-05-14T14:14:41.036Z,13.43
2023-05-14T14:16:44.024Z,13.22
2023-05-14T14:18:46.780Z,12.99
2023-05-14T14:20:49.590Z,12.59
2023-05-14T14:22:52.391Z,12.11
2023-05-14T14:24:55.150Z,12.69
2023-05-14T14:26:57.854Z,13.15
2023-05-14T14:29:00.586Z,12.89
2023-05-14T14:31:04.946Z,11.79
2023-05-14T14:33:07.818Z,12.71
2023-05-14T14:35:11.050Z,12.48
2023-05-14T14:37:13.897Z,12.60
2023-05-14T14:39:16.879Z,12.55
2023-05-14T14:41:19.725Z,12.75
2023-05-14T14:43:22.528Z,12.22
2023-05-14T14:45:25.705Z,12.30
2023-05-14T14:47:30.537Z,12.20
2023-05-14T14:49:33.280Z,12.46
2023-05-14T14:51:36.078Z,12.36
2023-05-14T14:53:40.084Z,12.68
2023-05-14T14:55:42.819Z,12.47
2023-05-14T14:57:45.500Z,12.50
2023-05-14T14:59:48.427Z,12.48
2023-05-14T15:01:51.162Z,12.48
2023-05-14T15:03:55.288Z,12.37
2023-05-14T15:05:58.127Z,12.77
2023-05-14T15:08:00.932Z,12.76
2023-05-14T15:10:03.721Z,13.36
2023-05-14T15:12:08.810Z,13.47
2023-05-14T15:14:11.515Z,13.72
2023-05-14T15:16:14.425Z,14.40
2023-05-14T15:18:17.139Z,14.74
2023-05-14T15:20:21.209Z,14.46
2023-05-14T15:22:24.025Z,15.51
2023-05-14T15:24:27.196Z,15.70
2023-05-14T15:26:29.888Z,16.05
2023-05-14T15:28:33.249Z,16.22
2023-05-14T15:30:36.049Z,16.35
2023-05-14T15:32:38.843Z,16.47
2023-05-14T15:34:41.867Z,16.54
2023-05-14T15:36:45.932Z,16.67
2023-05-14T15:38:48.993Z,16.84
2023-05-14T15:40:51.804Z,16.83
2023-05-14T15:42:54.657Z,16.70
2023-05-14T15:44:57.410Z,16.46
2023-05-14T15:47:00.191Z,15.52
2023-05-14T15:49:02.968Z,16.49
2023-05-14T15:51:06.239Z,16.84
2023-05-14T15:53:11.952Z,16.70
2023-05-14T15:55:15.227Z,16.34
2023-05-14T15:57:19.855Z,16.24
2023-05-14T15:59:24.530Z,15.54
2023-05-14T16:01:27.371Z,15.36
2023-05-14T16:03:30.162Z,15.47
2023-05-14T16:05:33.149Z,17.65
2023-05-14T16:07:36.230Z,17.76
2023-05-14T16:09:40.336Z,18.73
2023-05-14T16:11:43.198Z,20.10
2023-05-14T16:13:45.944Z,21.76
2023-05-14T16:15:48.765Z,22.36
2023-05-14T16:17:51.594Z,22.39
2023-05-14T16:19:56.317Z,21.64
2023-05-14T16:21:59.430Z,22.45
2023-05-14T16:24:02.274Z,24.08
2023-05-14T16:26:06.619Z,24.65
2023-05-14T16:28:09.317Z,22.20
2023-05-14T16:30:12.650Z,22.42
2023-05-14T16:32:15.470Z,22.46
2023-05-14T16:34:18.247Z,22.55
2023-05-14T16:36:21.034Z,22.61
2023-05-14T16:38:23.778Z,22.05
2023-05-14T16:40:26.794Z,20.59
2023-05-14T16:42:30.912Z,18.62
2023-05-14T16:44:33.662Z,17.49
2023-05-14T16:46:36.671Z,16.90
2023-05-14T16:48:39.456Z,15.98
2023-05-14T16:50:42.221Z,15.40
2023-05-14T16:52:44.911Z,15.55
2023-05-14T16:54:47.659Z,15.16
2023-05-14T16:56:50.703Z,15.15
2023-05-14T16:58:54.784Z,15.94
2023-05-14T17:00:57.600Z,15.82
2023-05-14T17:03:00.406Z,16.11
2023-05-14T17:05:03.968Z,15.71
2023-05-14T17:07:06.770Z,15.36
2023-05-14T17:09:09.760Z,15.26
2023-05-14T17:11:12.593Z,15.18
2023-05-14T17:13:15.391Z,14.83
2023-05-14T17:15:19.913Z,15.03
2023-05-14T17:17:22.619Z,15.48
2023-05-14T17:19:25.389Z,14.96
2023-05-14T17:21:28.090Z,14.90
2023-05-14T17:23:30.834Z,15.05
2023-05-14T17:25:34.151Z,14.68
2023-05-14T17:27:36.953Z,14.24
2023-05-14T17:29:39.648Z,15.05
2023-05-14T17:31:43.743Z,15.01
2023-05-14T17:33:46.721Z,15.21
2023-05-14T17:35:49.504Z,15.44
2023-05-14T17:37:52.273Z,14.95
2023-05-14T17:39:54.981Z,15.11
2023-05-14T17:41:57.706Z,14.85
2023-05-14T17:44:00.424Z,15.99
2023-05-14T17:46:03.528Z,16.43
2023-05-14T17:48:07.752Z,17.12
2023-05-14T17:50:11.162Z,17.98
2023-05-14T17:52:14.114Z,18.49
2023-05-14T17:54:16.768Z,19.02
2023-05-14T17:56:19.829Z,19.84
2023-05-14T17:58:22.526Z,19.69
2023-05-14T18:00:25.145Z,19.35
2023-05-14T18:02:27.822Z,18.89
2023-05-14T18:04:31.913Z,18.60
2023-05-14T18:06:34.817Z,18.25
2023-05-14T18:08:37.460Z,17.65
2023-05-14T18:10:40.107Z,17.58
2023-05-14T18:12:42.909Z,17.34
2023-05-14T18:14:45.847Z,17.11
2023-05-14T18:16:48.562Z,16.89
2023-05-14T18:18:52.237Z,16.76
2023-05-14T18:20:56.235Z,16.65
2023-05-14T18:22:58.954Z,16.52
2023-05-14T18:25:01.669Z,16.20
2023-05-14T18:27:04.436Z,15.94
2023-05-14T18:29:07.042Z,15.60
2023-05-14T18:31:09.880Z,15.38
2023-05-14T18:33:12.623Z,15.30
2023-05-14T18:35:15.346Z,14.84
2023-05-14T18:37:19.337Z,15.18
2023-05-14T18:39:21.959Z,15.02
2023-05-14T18:41:24.676Z,14.66
2023-05-14T18:43:27.333Z,14.77
2023-05-14T18:45:30.084Z,14.58
2023-05-14T18:47:33.563Z,14.06
2023-05-14T18:49:38.609Z,13.84
2023-05-14T18:51:41.414Z,13.65
2023-05-14T18:53:45.507Z,13.44
2023-05-14T18:55:48.302Z,13.98
2023-05-14T18:57:51.378Z,14.04
2023-05-14T18:59:54.315Z,13.83
2023-05-14T19:01:57.212Z,13.74
2023-05-14T19:04:01.321Z,13.40
2023-05-14T19:06:05.338Z,13.27
2023-05-14T19:08:08.673Z,13.27
2023-05-14T19:10:14.004Z,13.28
2023-05-14T19:12:16.808Z,13.02
2023-05-14T19:14:20.603Z,13.08
2023-05-14T19:16:24.118Z,13.08
2023-05-14T19:18:27.466Z,13.23
2023-05-14T19:20:30.243Z,13.37
2023-05-14T19:22:33.089Z,12.96
2023-05-14T19:24:37.706Z,12.72
2023-05-14T19:26:41.980Z,12.72
2023-05-14T19:28:44.700Z,12.98
2023-05-14T19:30:47.744Z,12.84
2023-05-14T19:32:50.573Z,12.93
2023-05-14T19:34:53.325Z,13.07
2023-05-14T19:36:56.309Z,13.08
2023-05-14T19:38:59.112Z,13.11
2023-05-14T19:41:01.859Z,13.14
2023-05-14T19:43:07.787Z,12.99
2023-05-14T19:45:11.184Z,12.94
2023-05-14T19:47:14.358Z,11.85
2023-05-14T19:49:17.168Z,12.88
2023-05-14T19:51:19.917Z,12.78
2023-05-14T19:53:23.990Z,12.72
2023-05-14T19:55:26.961Z,12.68
2023-05-14T19:57:29.974Z,12.77
2023-05-14T19:59:34.632Z,12.60
2023-05-14T20:01:37.459Z,12.52
2023-05-14T20:03:40.443Z,12.41
2023-05-14T20:05:45.075Z,12.48
2023-05-14T20:07:48.840Z,12.42
2023-05-14T20:09:51.599Z,11.87
2023-05-14T20:11:54.252Z,12.17
2023-05-14T20:13:56.904Z,11.95
2023-05-14T20:16:01.067Z,11.55
2023-05-14T20:18:03.792Z,11.87
2023-05-14T20:20:09.726Z,11.66
2023-05-14T20:22:12.397Z,11.40
2023-05-14T20:24:15.115Z,11.91
2023-05-14T20:26:17.836Z,11.85
2023-05-14T20:28:20.745Z,11.82
2023-05-14T20:30:23.611Z,10.97
2023-05-14T20:32:27.907Z,11.71
2023-05-14T20:34:30.569Z,11.69
2023-05-14T20:36:33.256Z,11.47
2023-05-14T20:38:35.950Z,11.35
2023-05-14T20:40:38.583Z,11.31
2023-05-14T20:42:41.683Z,11.30
2023-05-14T20:44:44.466Z,11.33
2023-05-14T20:46:50.446Z,11.12
2023-05-14T20:48:56.987Z,11.23
2023-05-14T20:50:59.663Z,11.29
2023-05-14T20:53:02.333Z,11.38
2023-05-14T20:55:05.620Z,11.29
2023-05-14T20:57:08.414Z,10.81
2023-05-14T20:59:11.081Z,11.21
2023-05-14T21:01:13.780Z,11.27
2023-05-14T21:03:16.908Z,11.23
2023-05-14T21:05:22.074Z,11.14
2023-05-14T21:07:25.180Z,11.12
2023-05-14T21:09:28.627Z,11.05
2023-05-14T21:11:31.354Z,10.14
2023-05-14T21:13:34.104Z,11.06
2023-05-14T21:15:36.867Z,11.05
2023-05-14T21:17:39.780Z,11.04
2023-05-14T21:19:42.592Z,11.00
2023-05-14T21:21:47.347Z,11.03
2023-05-14T21:23:50.436Z,9.83
2023-05-14T21:25:54.733Z,10.92
2023-05-14T21:27:57.483Z,10.97
2023-05-14T21:30:00.289Z,10.84
2023-05-14T21:32:03.036Z,10.86
2023-05-14T21:34:05.809Z,10.58
2023-05-14T21:36:09.073Z,9.79
2023-05-14T21:38:13.228Z,10.79
2023-05-14T21:40:16.274Z,10.60
2023-05-14T21:42:20.931Z,10.62
2023-05-14T21:44:23.712Z,10.67
2023-05-14T21:46:28.818Z,10.63
2023-05-14T21:48:31.709Z,10.58
2023-05-14T21:50:34.517Z,8.42
2023-05-14T21:52:37.978Z,10.59
2023-05-14T21:54:42.031Z,10.58
2023-05-14T21:56:44.791Z,10.53
2023-05-14T21:58:47.543Z,10.48
2023-05-14T22:00:50.436Z,9.74
2023-05-14T22:02:54.053Z,10.43
2023-05-14T22:04:56.793Z,10.40
2023-05-14T22:06:59.568Z,10.33
2023-05-14T22:09:02.279Z,10.53
2023-05-14T22:11:06.498Z,10.43
2023-05-14T22:13:09.242Z,10.50
2023-05-14T22:15:13.044Z,10.50
2023-05-14T22:17:16.004Z,10.63
2023-05-14T22:19:18.789Z,10.67
2023-05-14T22:21:21.527Z,9.46
2023-05-14T22:23:24.338Z,10.71
2023-05-14T22:25:27.226Z,10.57
2023-05-14T22:27:31.724Z,10.52
2023-05-14T22:29:35.711Z,9.36
2023-05-14T22:31:39.553Z,10.00
2023-05-14T22:33:42.310Z,10.46
2023-05-14T22:35:45.395Z,9.78
2023-05-14T22:37:48.221Z,10.34
2023-05-14T22:39:50.963Z,10.27
2023-05-14T22:41:55.121Z,10.76
2023-05-14T22:43:59.392Z,10.88
2023-05-14T22:46:02.197Z,10.94
2023-05-14T22:48:05.378Z,10.64
2023-05-14T22:50:11.483Z,9.86
2023-05-14T22:52:14.218Z,11.05
2023-05-14T22:54:17.595Z,11.03
2023-05-14T22:56:22.131Z,10.97
2023-05-14T22:58:24.962Z,10.77
2023-05-14T23:00:29.006Z,10.75
2023-05-14T23:02:31.805Z,9.67
2023-05-14T23:04:34.672Z,10.58
2023-05-14T23:06:37.434Z,10.34
2023-05-14T23:08:40.237Z,10.22
2023-05-14T23:10:42.946Z,10.17
2023-05-14T23:12:45.708Z,10.31
2023-05-14T23:14:48.420Z,9.51
2023-05-14T23:16:52.447Z,10.60
2023-05-14T23:18:55.281Z,10.78
2023-05-14T23:20:58.206Z,10.87
2023-05-14T23:23:00.917Z,10.88
2023-05-14T23:25:03.782Z,10.95
2023-05-14T23:27:06.662Z,10.93
2023-05-14T23:29:09.331Z,10.47
2023-05-14T23:31:12.077Z,10.80
2023-05-14T23:33:16.390Z,11.05
2023-05-14T23:35:19.328Z,11.06
2023-05-14T23:37:22.118Z,11.06
2023-05-14T23:39:24.958Z,10.76
2023-05-14T23:41:27.708Z,11.07
2023-05-14T23:43:30.557Z,10.85
2023-05-14T23:45:33.584Z,10.78
2023-05-14T23:47:36.547Z,10.65
2023-05-14T23:49:40.798Z,10.04
2023-05-14T23:51:43.544Z,10.54
2023-05-14T23:53:46.250Z,10.50
2023-05-14T23:55:49.051Z,10.61
2023-05-14T23:57:51.901Z,10.62
2023-05-14T23:59:54.622Z,9.39
